Aviation Digital Data Service (ADDS)

Output produced by TAFs form (0826 UTC 26 August 2016)
found at http://aviationweather.gov/adds/tafs/
 
KTCC 260544Z 2606/2706 10008KT P6SM VCSH SCT080 BKN120 
     TEMPO 2607/2610 6SM -TSRA BKN050CB BKN090 
     FM261000 20006KT P6SM VCSH BKN100 
     FM261600 20011KT P6SM SCT100 SCT150 
     FM270200 18009KT P6SM SCT090 BKN140